sensor_id;sensor_type;location;lat;lon;timestamp;pressure;altitude;pressure_sealevel;temperature;humidity
16806;BME280;8520;50.102;20.010;2022-11-20T00:00:55;97989.13;;;-0.44;73.89
16806;BME280;8520;50.102;20.010;2022-11-20T00:03:23;97987.97;;;-0.47;74.00
16806;BME280;8520;50.102;20.010;2022-11-20T00:05:51;97998.78;;;-0.47;73.90
16806;BME280;8520;50.102;20.010;2022-11-20T00:08:19;97993.03;;;-0.49;74.43
16806;BME280;8520;50.102;20.010;2022-11-20T00:10:47;97993.78;;;-0.79;75.86
16806;BME280;8520;50.102;20.010;2022-11-20T00:13:15;97984.34;;;-1.01;76.58
16806;BME280;8520;50.102;20.010;2022-11-20T00:15:45;97982.59;;;-1.15;77.34
16806;BME280;8520;50.102;20.010;2022-11-20T00:18:13;97986.06;;;-1.15;78.04
16806;BME280;8520;50.102;20.010;2022-11-20T00:20:41;97983.53;;;-1.32;77.96
16806;BME280;8520;50.102;20.010;2022-11-20T00:23:09;97978.88;;;-0.94;77.60
16806;BME280;8520;50.102;20.010;2022-11-20T00:25:37;97985.81;;;-0.90;76.89
16806;BME280;8520;50.102;20.010;2022-11-20T00:28:05;97982.53;;;-1.11;77.67
16806;BME280;8520;50.102;20.010;2022-11-20T00:30:33;97981.00;;;-1.12;77.82
16806;BME280;8520;50.102;20.010;2022-11-20T00:33:02;97977.66;;;-1.24;78.41
16806;BME280;8520;50.102;20.010;2022-11-20T00:35:30;97984.25;;;-0.91;77.30
16806;BME280;8520;50.102;20.010;2022-11-20T00:37:58;97979.44;;;-0.76;76.73
16806;BME280;8520;50.102;20.010;2022-11-20T00:40:26;97985.91;;;-0.66;76.32
16806;BME280;8520;50.102;20.010;2022-11-20T00:42:54;97983.97;;;-0.66;76.64
16806;BME280;8520;50.102;20.010;2022-11-20T00:45:22;97977.25;;;-0.54;76.94
16806;BME280;8520;50.102;20.010;2022-11-20T00:47:50;97979.50;;;-0.49;77.38
16806;BME280;8520;50.102;20.010;2022-11-20T00:50:19;97970.94;;;-0.44;79.15
16806;BME280;8520;50.102;20.010;2022-11-20T00:52:47;97970.81;;;-0.37;77.96
16806;BME280;8520;50.102;20.010;2022-11-20T00:55:15;97965.53;;;-0.17;79.39
16806;BME280;8520;50.102;20.010;2022-11-20T00:57:43;97965.13;;;-0.15;76.67
16806;BME280;8520;50.102;20.010;2022-11-20T01:00:11;97949.63;;;-0.42;76.44
16806;BME280;8520;50.102;20.010;2022-11-20T01:02:39;97958.94;;;-0.43;75.74
16806;BME280;8520;50.102;20.010;2022-11-20T01:05:07;97952.44;;;-0.49;75.42
16806;BME280;8520;50.102;20.010;2022-11-20T01:07:37;97958.06;;;-0.63;75.53
16806;BME280;8520;50.102;20.010;2022-11-20T01:10:06;97967.31;;;-0.64;75.53
16806;BME280;8520;50.102;20.010;2022-11-20T01:12:34;97958.81;;;-0.63;75.78
16806;BME280;8520;50.102;20.010;2022-11-20T01:15:02;97958.84;;;-0.66;75.20
16806;BME280;8520;50.102;20.010;2022-11-20T01:17:31;97961.47;;;-0.59;75.31
16806;BME280;8520;50.102;20.010;2022-11-20T01:19:59;97963.94;;;-0.72;75.95
16806;BME280;8520;50.102;20.010;2022-11-20T01:22:26;97950.78;;;-0.70;76.33
16806;BME280;8520;50.102;20.010;2022-11-20T01:24:56;97939.63;;;-0.75;76.49
16806;BME280;8520;50.102;20.010;2022-11-20T01:27:24;97934.75;;;-0.57;76.10
16806;BME280;8520;50.102;20.010;2022-11-20T01:29:52;97935.16;;;-0.59;75.70
16806;BME280;8520;50.102;20.010;2022-11-20T01:32:26;97940.41;;;-0.75;75.94
16806;BME280;8520;50.102;20.010;2022-11-20T01:34:54;97942.47;;;-0.86;76.44
16806;BME280;8520;50.102;20.010;2022-11-20T01:37:22;97943.16;;;-0.78;76.63
16806;BME280;8520;50.102;20.010;2022-11-20T01:39:50;97945.94;;;-0.86;76.65
16806;BME280;8520;50.102;20.010;2022-11-20T01:42:19;97940.81;;;-0.76;76.04
16806;BME280;8520;50.102;20.010;2022-11-20T01:48:06;97935.38;;;-0.73;76.06
16806;BME280;8520;50.102;20.010;2022-11-20T01:50:34;97944.75;;;-0.81;76.04
16806;BME280;8520;50.102;20.010;2022-11-20T01:53:04;97952.72;;;-1.04;76.81
16806;BME280;8520;50.102;20.010;2022-11-20T01:55:34;97938.66;;;-0.92;76.23
16806;BME280;8520;50.102;20.010;2022-11-20T01:58:06;97938.94;;;-0.83;75.87
16806;BME280;8520;50.102;20.010;2022-11-20T02:00:34;97942.38;;;-0.79;75.73
16806;BME280;8520;50.102;20.010;2022-11-20T02:03:07;97948.97;;;-0.80;75.07
16806;BME280;8520;50.102;20.010;2022-11-20T02:05:38;97947.47;;;-0.84;74.97
16806;BME280;8520;50.102;20.010;2022-11-20T02:08:09;97949.47;;;-0.89;75.18
16806;BME280;8520;50.102;20.010;2022-11-20T02:10:37;97937.13;;;-0.90;75.07
16806;BME280;8520;50.102;20.010;2022-11-20T02:13:07;97941.78;;;-0.94;74.91
16806;BME280;8520;50.102;20.010;2022-11-20T02:15:53;97946.44;;;-0.94;74.66
16806;BME280;8520;50.102;20.010;2022-11-20T02:18:22;97955.47;;;-1.08;74.16
16806;BME280;8520;50.102;20.010;2022-11-20T02:20:54;97953.97;;;-1.12;73.93
16806;BME280;8520;50.102;20.010;2022-11-20T02:23:27;97965.53;;;-1.08;73.62
16806;BME280;8520;50.102;20.010;2022-11-20T02:26:02;97954.91;;;-1.26;73.27
16806;BME280;8520;50.102;20.010;2022-11-20T02:28:31;97961.19;;;-1.40;73.19
16806;BME280;8520;50.102;20.010;2022-11-20T02:31:00;97962.72;;;-1.39;73.38
16806;BME280;8520;50.102;20.010;2022-11-20T02:33:29;97958.25;;;-1.53;73.33
16806;BME280;8520;50.102;20.010;2022-11-20T02:35:57;97964.38;;;-1.49;73.54
16806;BME280;8520;50.102;20.010;2022-11-20T02:38:25;97961.94;;;-1.36;73.22
16806;BME280;8520;50.102;20.010;2022-11-20T02:40:53;97964.97;;;-1.30;72.99
16806;BME280;8520;50.102;20.010;2022-11-20T02:43:23;97957.63;;;-1.30;72.82
16806;BME280;8520;50.102;20.010;2022-11-20T02:45:51;97957.22;;;-1.28;73.19
16806;BME280;8520;50.102;20.010;2022-11-20T02:48:19;97959.16;;;-1.29;73.27
16806;BME280;8520;50.102;20.010;2022-11-20T02:50:50;97958.78;;;-1.27;73.29
16806;BME280;8520;50.102;20.010;2022-11-20T02:53:18;97961.50;;;-1.31;73.23
16806;BME280;8520;50.102;20.010;2022-11-20T02:55:46;97957.31;;;-1.35;73.31
16806;BME280;8520;50.102;20.010;2022-11-20T02:58:14;97955.72;;;-1.33;73.51
16806;BME280;8520;50.102;20.010;2022-11-20T03:00:43;97944.97;;;-1.36;73.74
16806;BME280;8520;50.102;20.010;2022-11-20T03:03:11;97943.00;;;-1.32;74.20
16806;BME280;8520;50.102;20.010;2022-11-20T03:05:39;97954.16;;;-1.30;73.90
16806;BME280;8520;50.102;20.010;2022-11-20T03:08:07;97950.31;;;-1.33;74.13
16806;BME280;8520;50.102;20.010;2022-11-20T03:10:35;97941.53;;;-1.40;74.94
16806;BME280;8520;50.102;20.010;2022-11-20T03:13:03;97937.94;;;-1.30;74.74
16806;BME280;8520;50.102;20.010;2022-11-20T03:15:31;97944.88;;;-1.29;74.49
16806;BME280;8520;50.102;20.010;2022-11-20T03:18:00;97948.00;;;-1.31;74.17
16806;BME280;8520;50.102;20.010;2022-11-20T03:20:28;97936.47;;;-1.35;74.23
16806;BME280;8520;50.102;20.010;2022-11-20T03:22:56;97940.72;;;-1.37;74.33
16806;BME280;8520;50.102;20.010;2022-11-20T03:25:24;97943.06;;;-1.39;74.07
16806;BME280;8520;50.102;20.010;2022-11-20T03:27:52;97944.63;;;-1.42;74.08
16806;BME280;8520;50.102;20.010;2022-11-20T03:30:20;97939.66;;;-1.47;74.10
16806;BME280;8520;50.102;20.010;2022-11-20T03:32:56;97946.28;;;-1.52;74.40
16806;BME280;8520;50.102;20.010;2022-11-20T03:35:25;97936.56;;;-1.46;74.28
16806;BME280;8520;50.102;20.010;2022-11-20T03:37:53;97934.63;;;-1.45;74.15
16806;BME280;8520;50.102;20.010;2022-11-20T03:40:21;97934.25;;;-1.47;74.43
16806;BME280;8520;50.102;20.010;2022-11-20T03:42:49;97929.25;;;-1.49;74.47
16806;BME280;8520;50.102;20.010;2022-11-20T03:45:18;97932.72;;;-1.48;74.24
16806;BME280;8520;50.102;20.010;2022-11-20T03:47:46;97927.72;;;-1.50;74.28
16806;BME280;8520;50.102;20.010;2022-11-20T03:50:14;97920.00;;;-1.51;74.40
16806;BME280;8520;50.102;20.010;2022-11-20T03:52:43;97927.00;;;-1.54;74.34
16806;BME280;8520;50.102;20.010;2022-11-20T03:55:11;97927.00;;;-1.54;74.22
16806;BME280;8520;50.102;20.010;2022-11-20T03:57:39;97925.47;;;-1.55;74.23
16806;BME280;8520;50.102;20.010;2022-11-20T04:00:08;97932.00;;;-1.56;74.27
16806;BME280;8520;50.102;20.010;2022-11-20T04:02:36;97922.78;;;-1.58;74.23
16806;BME280;8520;50.102;20.010;2022-11-20T04:05:05;97920.88;;;-1.61;74.38
16806;BME280;8520;50.102;20.010;2022-11-20T04:07:33;97925.94;;;-1.67;74.58
16806;BME280;8520;50.102;20.010;2022-11-20T04:10:04;97924.75;;;-1.62;74.66
16806;BME280;8520;50.102;20.010;2022-11-20T04:12:32;97916.66;;;-1.66;74.46
16806;BME280;8520;50.102;20.010;2022-11-20T04:15:01;97921.66;;;-1.61;74.27
16806;BME280;8520;50.102;20.010;2022-11-20T04:17:29;97924.72;;;-1.59;74.26
16806;BME280;8520;50.102;20.010;2022-11-20T04:19:56;97930.13;;;-1.59;74.21
16806;BME280;8520;50.102;20.010;2022-11-20T04:22:25;97912.09;;;-1.69;74.44
16806;BME280;8520;50.102;20.010;2022-11-20T04:24:52;97911.00;;;-1.79;74.72
16806;BME280;8520;50.102;20.010;2022-11-20T04:27:22;97910.97;;;-1.75;75.02
16806;BME280;8520;50.102;20.010;2022-11-20T04:29:50;97910.94;;;-1.72;74.90
16806;BME280;8520;50.102;20.010;2022-11-20T04:32:18;97909.38;;;-1.69;74.93
16806;BME280;8520;50.102;20.010;2022-11-20T04:34:46;97907.09;;;-1.70;74.80
16806;BME280;8520;50.102;20.010;2022-11-20T04:37:14;97902.09;;;-1.72;74.95
16806;BME280;8520;50.102;20.010;2022-11-20T04:39:42;97905.50;;;-1.68;74.76
16806;BME280;8520;50.102;20.010;2022-11-20T04:42:10;97899.69;;;-1.63;74.79
16806;BME280;8520;50.102;20.010;2022-11-20T04:44:58;97904.38;;;-1.70;75.29
16806;BME280;8520;50.102;20.010;2022-11-20T04:47:26;97900.88;;;-1.67;75.32
16806;BME280;8520;50.102;20.010;2022-11-20T04:49:54;97904.69;;;-1.65;75.10
16806;BME280;8520;50.102;20.010;2022-11-20T04:52:22;97897.75;;;-1.62;75.15
16806;BME280;8520;50.102;20.010;2022-11-20T04:54:50;97896.22;;;-1.63;74.99
16806;BME280;8520;50.102;20.010;2022-11-20T04:57:19;97893.13;;;-1.65;75.62
16806;BME280;8520;50.102;20.010;2022-11-20T04:59:47;97891.97;;;-1.64;75.59
16806;BME280;8520;50.102;20.010;2022-11-20T05:02:16;97890.75;;;-1.60;75.69
16806;BME280;8520;50.102;20.010;2022-11-20T05:04:45;97896.13;;;-1.56;75.68
16806;BME280;8520;50.102;20.010;2022-11-20T05:07:13;97896.94;;;-1.59;75.56
16806;BME280;8520;50.102;20.010;2022-11-20T05:09:41;97897.28;;;-1.57;75.59
16806;BME280;8520;50.102;20.010;2022-11-20T05:12:09;97896.94;;;-1.59;75.26
16806;BME280;8520;50.102;20.010;2022-11-20T05:14:37;97898.50;;;-1.62;75.20
16806;BME280;8520;50.102;20.010;2022-11-20T05:17:05;97893.81;;;-1.58;75.19
16806;BME280;8520;50.102;20.010;2022-11-20T05:19:35;97893.50;;;-1.63;74.98
16806;BME280;8520;50.102;20.010;2022-11-20T05:22:04;97897.38;;;-1.64;74.96
16806;BME280;8520;50.102;20.010;2022-11-20T05:24:32;97898.16;;;-1.67;74.77
16806;BME280;8520;50.102;20.010;2022-11-20T05:27:00;97895.88;;;-1.69;74.79
16806;BME280;8520;50.102;20.010;2022-11-20T05:29:28;97888.88;;;-1.63;74.52
16806;BME280;8520;50.102;20.010;2022-11-20T05:31:56;97891.63;;;-1.70;74.45
16806;BME280;8520;50.102;20.010;2022-11-20T05:34:24;97892.44;;;-1.73;74.61
16806;BME280;8520;50.102;20.010;2022-11-20T05:36:53;97886.66;;;-1.72;74.60
16806;BME280;8520;50.102;20.010;2022-11-20T05:39:21;97878.91;;;-1.69;74.41
16806;BME280;8520;50.102;20.010;2022-11-20T05:41:49;97881.66;;;-1.77;74.39
16806;BME280;8520;50.102;20.010;2022-11-20T05:44:38;97881.72;;;-1.80;74.56
16806;BME280;8520;50.102;20.010;2022-11-20T05:47:06;97889.06;;;-1.84;74.54
16806;BME280;8520;50.102;20.010;2022-11-20T05:49:34;97872.06;;;-1.81;74.68
16806;BME280;8520;50.102;20.010;2022-11-20T05:52:03;97880.19;;;-1.85;74.70
16806;BME280;8520;50.102;20.010;2022-11-20T05:54:32;97872.44;;;-1.79;75.09
16806;BME280;8520;50.102;20.010;2022-11-20T05:57:00;97876.44;;;-1.94;74.84
16806;BME280;8520;50.102;20.010;2022-11-20T05:59:27;97877.19;;;-1.94;75.12
16806;BME280;8520;50.102;20.010;2022-11-20T06:01:55;97881.75;;;-1.87;75.01
16806;BME280;8520;50.102;20.010;2022-11-20T06:04:24;97880.19;;;-1.85;75.03
16806;BME280;8520;50.102;20.010;2022-11-20T06:06:52;97875.13;;;-1.79;75.08
16806;BME280;8520;50.102;20.010;2022-11-20T06:09:21;97872.44;;;-1.79;74.74
16806;BME280;8520;50.102;20.010;2022-11-20T06:11:49;97869.06;;;-1.90;74.92
16806;BME280;8520;50.102;20.010;2022-11-20T06:14:17;97863.28;;;-1.89;75.14
16806;BME280;8520;50.102;20.010;2022-11-20T06:16:45;97869.84;;;-1.90;75.00
16806;BME280;8520;50.102;20.010;2022-11-20T06:19:13;97874.09;;;-1.92;75.69
16806;BME280;8520;50.102;20.010;2022-11-20T06:21:41;97880.25;;;-1.88;75.37
16806;BME280;8520;50.102;20.010;2022-11-20T06:24:10;97871.31;;;-1.85;75.77
16806;BME280;8520;50.102;20.010;2022-11-20T06:26:39;97871.69;;;-1.83;75.61
16806;BME280;8520;50.102;20.010;2022-11-20T06:29:07;97872.84;;;-1.81;75.68
16806;BME280;8520;50.102;20.010;2022-11-20T06:31:35;97875.91;;;-1.79;75.66
16806;BME280;8520;50.102;20.010;2022-11-20T06:34:05;97871.31;;;-1.85;75.09
16806;BME280;8520;50.102;20.010;2022-11-20T06:36:33;97867.81;;;-1.79;75.33
16806;BME280;8520;50.102;20.010;2022-11-20T06:39:02;97869.28;;;-1.74;75.20
16806;BME280;8520;50.102;20.010;2022-11-20T06:41:30;97866.22;;;-1.76;75.01
16806;BME280;8520;50.102;20.010;2022-11-20T06:43:59;97866.56;;;-1.70;75.02
16806;BME280;8520;50.102;20.010;2022-11-20T06:46:27;97860.75;;;-1.69;74.96
16806;BME280;8520;50.102;20.010;2022-11-20T06:48:55;97847.19;;;-1.65;74.80
16806;BME280;8520;50.102;20.010;2022-11-20T06:51:24;97856.38;;;-1.56;74.37
16806;BME280;8520;50.102;20.010;2022-11-20T06:53:52;97853.00;;;-1.63;74.08
16806;BME280;8520;50.102;20.010;2022-11-20T06:56:20;97858.88;;;-1.72;73.49
16806;BME280;8520;50.102;20.010;2022-11-20T06:58:48;97855.97;;;-1.54;73.84
16806;BME280;8520;50.102;20.010;2022-11-20T07:01:18;97849.63;;;-1.75;73.55
16806;BME280;8520;50.102;20.010;2022-11-20T07:03:48;97849.06;;;-1.59;73.75
16806;BME280;8520;50.102;20.010;2022-11-20T07:06:20;97854.34;;;-1.45;73.37
16806;BME280;8520;50.102;20.010;2022-11-20T07:08:50;97861.56;;;-1.38;73.21
16806;BME280;8520;50.102;20.010;2022-11-20T07:11:18;97853.88;;;-1.39;73.11
16806;BME280;8520;50.102;20.010;2022-11-20T07:13:46;97851.94;;;-1.39;72.93
16806;BME280;8520;50.102;20.010;2022-11-20T07:16:15;97867.31;;;-1.32;72.99
16806;BME280;8520;50.102;20.010;2022-11-20T07:18:44;97869.59;;;-1.27;72.89
16806;BME280;8520;50.102;20.010;2022-11-20T07:21:16;97865.28;;;-1.25;72.92
16806;BME280;8520;50.102;20.010;2022-11-20T07:23:44;97869.31;;;-1.40;72.76
16806;BME280;8520;50.102;20.010;2022-11-20T07:26:14;97871.94;;;-1.33;73.28
16806;BME280;8520;50.102;20.010;2022-11-20T07:28:44;97870.66;;;-1.21;73.05
16806;BME280;8520;50.102;20.010;2022-11-20T07:31:12;97874.59;;;-1.29;73.22
16806;BME280;8520;50.102;20.010;2022-11-20T07:33:46;97871.41;;;-1.21;73.49
16806;BME280;8520;50.102;20.010;2022-11-20T07:36:14;97876.03;;;-1.18;73.28
16806;BME280;8520;50.102;20.010;2022-11-20T07:38:42;97885.06;;;-0.97;73.66
16806;BME280;8520;50.102;20.010;2022-11-20T07:41:10;97882.84;;;-1.06;73.95
16806;BME280;8520;50.102;20.010;2022-11-20T07:43:38;97881.94;;;-1.26;74.54
16806;BME280;8520;50.102;20.010;2022-11-20T07:46:07;97889.09;;;-1.12;74.30
16806;BME280;8520;50.102;20.010;2022-11-20T07:48:35;97886.13;;;-0.91;74.20
16806;BME280;8520;50.102;20.010;2022-11-20T07:51:05;97887.34;;;-0.96;75.08
16806;BME280;8520;50.102;20.010;2022-11-20T07:53:33;97890.31;;;-0.87;74.63
16806;BME280;8520;50.102;20.010;2022-11-20T07:56:01;97890.22;;;-0.79;74.70
16806;BME280;8520;50.102;20.010;2022-11-20T07:58:30;97889.41;;;-0.76;74.61
16806;BME280;8520;50.102;20.010;2022-11-20T08:01:02;97885.13;;;-0.74;74.34
16806;BME280;8520;50.102;20.010;2022-11-20T08:03:31;97898.38;;;-0.83;73.95
16806;BME280;8520;50.102;20.010;2022-11-20T08:05:59;97894.16;;;-0.57;73.68
16806;BME280;8520;50.102;20.010;2022-11-20T08:08:28;97890.66;;;-0.54;73.62
16806;BME280;8520;50.102;20.010;2022-11-20T08:10:59;97897.03;;;-0.68;73.53
16806;BME280;8520;50.102;20.010;2022-11-20T08:13:41;97892.53;;;-0.78;73.90
16806;BME280;8520;50.102;20.010;2022-11-20T08:16:26;97893.72;;;-0.82;74.39
16806;BME280;8520;50.102;20.010;2022-11-20T08:18:54;97890.53;;;-0.74;74.56
16806;BME280;8520;50.102;20.010;2022-11-20T08:21:22;97892.38;;;-0.67;74.60
16806;BME280;8520;50.102;20.010;2022-11-20T08:23:52;97899.38;;;-0.70;74.91
16806;BME280;8520;50.102;20.010;2022-11-20T08:26:21;97901.09;;;-0.56;75.00
16806;BME280;8520;50.102;20.010;2022-11-20T08:28:49;97888.59;;;-0.46;74.71
16806;BME280;8520;50.102;20.010;2022-11-20T08:31:17;97884.91;;;-0.87;75.01
16806;BME280;8520;50.102;20.010;2022-11-20T08:33:45;97884.78;;;-1.06;75.68
16806;BME280;8520;50.102;20.010;2022-11-20T08:36:13;97886.78;;;-0.83;75.91
16806;BME280;8520;50.102;20.010;2022-11-20T08:38:41;97880.69;;;-0.61;76.15
16806;BME280;8520;50.102;20.010;2022-11-20T08:41:10;97872.75;;;-0.44;75.62
16806;BME280;8520;50.102;20.010;2022-11-20T08:43:55;97871.03;;;-0.35;75.72
16806;BME280;8520;50.102;20.010;2022-11-20T08:46:25;97870.88;;;-0.24;75.41
16806;BME280;8520;50.102;20.010;2022-11-20T08:48:54;97876.16;;;-0.40;74.95
16806;BME280;8520;50.102;20.010;2022-11-20T08:51:22;97871.41;;;-0.09;75.65
16806;BME280;8520;50.102;20.010;2022-11-20T08:53:50;97866.22;;;0.23;75.12
16806;BME280;8520;50.102;20.010;2022-11-20T08:56:20;97863.13;;;0.02;75.32
16806;BME280;8520;50.102;20.010;2022-11-20T08:58:49;97862.41;;;0.21;75.12
16806;BME280;8520;50.102;20.010;2022-11-20T09:01:37;97856.03;;;0.08;74.82
16806;BME280;8520;50.102;20.010;2022-11-20T09:04:06;97855.06;;;0.41;74.97
16806;BME280;8520;50.102;20.010;2022-11-20T09:06:34;97851.59;;;0.41;75.24
16806;BME280;8520;50.102;20.010;2022-11-20T09:09:02;97858.47;;;0.45;74.86
16806;BME280;8520;50.102;20.010;2022-11-20T09:11:36;97857.19;;;0.73;73.68
16806;BME280;8520;50.102;20.010;2022-11-20T09:14:04;97844.84;;;0.69;73.81
16806;BME280;8520;50.102;20.010;2022-11-20T09:16:32;97845.50;;;0.76;73.75
16806;BME280;8520;50.102;20.010;2022-11-20T09:18:59;97847.97;;;0.87;73.20
16806;BME280;8520;50.102;20.010;2022-11-20T09:21:47;97855.63;;;0.92;73.38
16806;BME280;8520;50.102;20.010;2022-11-20T09:24:15;97849.25;;;0.82;73.19
16806;BME280;8520;50.102;20.010;2022-11-20T09:26:45;97849.09;;;0.70;73.05
16806;BME280;8520;50.102;20.010;2022-11-20T09:29:13;97856.47;;;0.69;73.50
16806;BME280;8520;50.102;20.010;2022-11-20T09:31:41;97856.16;;;0.44;74.35
16806;BME280;8520;50.102;20.010;2022-11-20T09:34:08;97853.75;;;0.69;74.38
16806;BME280;8520;50.102;20.010;2022-11-20T09:36:44;97856.94;;;0.44;74.51
16806;BME280;8520;50.102;20.010;2022-11-20T09:39:19;97857.09;;;0.77;73.95
16806;BME280;8520;50.102;20.010;2022-11-20T09:42:00;97861.22;;;0.65;73.49
16806;BME280;8520;50.102;20.010;2022-11-20T09:44:47;97862.88;;;0.59;74.25
16806;BME280;8520;50.102;20.010;2022-11-20T09:47:24;97871.31;;;0.41;74.40
16806;BME280;8520;50.102;20.010;2022-11-20T09:50:03;97858.97;;;0.40;74.37
16806;BME280;8520;50.102;20.010;2022-11-20T09:52:44;97853.75;;;0.06;75.93
16806;BME280;8520;50.102;20.010;2022-11-20T09:55:16;97856.22;;;-0.03;77.25
16806;BME280;8520;50.102;20.010;2022-11-20T09:57:48;97855.66;;;0.09;77.65
16806;BME280;8520;50.102;20.010;2022-11-20T10:00:18;97849.44;;;0.52;77.19
16806;BME280;8520;50.102;20.010;2022-11-20T10:02:52;97846.53;;;0.82;76.81
16806;BME280;8520;50.102;20.010;2022-11-20T10:05:27;97855.41;;;1.03;76.20
16806;BME280;8520;50.102;20.010;2022-11-20T10:08:02;97855.28;;;0.90;76.18
16806;BME280;8520;50.102;20.010;2022-11-20T10:10:41;97862.81;;;1.19;75.23
16806;BME280;8520;50.102;20.010;2022-11-20T10:13:31;97860.06;;;1.02;74.88
16806;BME280;8520;50.102;20.010;2022-11-20T10:16:11;97857.75;;;1.37;74.87
16806;BME280;8520;50.102;20.010;2022-11-20T10:18:54;97857.97;;;1.62;74.01
16806;BME280;8520;50.102;20.010;2022-11-20T10:21:30;97857.66;;;1.24;74.64
16806;BME280;8520;50.102;20.010;2022-11-20T10:24:24;97855.59;;;1.48;75.01
16806;BME280;8520;50.102;20.010;2022-11-20T10:27:05;97852.59;;;1.42;74.70
16806;BME280;8520;50.102;20.010;2022-11-20T10:29:41;97843.38;;;1.73;75.12
16806;BME280;8520;50.102;20.010;2022-11-20T10:32:15;97838.53;;;1.80;74.72
16806;BME280;8520;50.102;20.010;2022-11-20T10:34:47;97843.81;;;1.71;74.02
16806;BME280;8520;50.102;20.010;2022-11-20T10:37:19;97837.00;;;1.95;73.78
16806;BME280;8520;50.102;20.010;2022-11-20T10:39:53;97839.91;;;1.72;74.26
16806;BME280;8520;50.102;20.010;2022-11-20T10:42:30;97835.22;;;1.73;74.51
16806;BME280;8520;50.102;20.010;2022-11-20T10:45:11;97831.34;;;2.19;73.50
16806;BME280;8520;50.102;20.010;2022-11-20T10:47:43;97824.19;;;2.12;72.84
16806;BME280;8520;50.102;20.010;2022-11-20T10:50:15;97820.63;;;2.28;72.92
16806;BME280;8520;50.102;20.010;2022-11-20T10:52:55;97815.09;;;2.03;74.69
16806;BME280;8520;50.102;20.010;2022-11-20T10:55:28;97809.81;;;2.12;73.66
16806;BME280;8520;50.102;20.010;2022-11-20T10:58:03;97808.69;;;2.25;73.94
16806;BME280;8520;50.102;20.010;2022-11-20T11:00:37;97809.44;;;2.55;72.42
16806;BME280;8520;50.102;20.010;2022-11-20T11:03:19;97805.13;;;2.70;72.64
16806;BME280;8520;50.102;20.010;2022-11-20T11:05:50;97799.31;;;2.97;72.38
16806;BME280;8520;50.102;20.010;2022-11-20T11:08:26;97799.63;;;2.87;72.05
16806;BME280;8520;50.102;20.010;2022-11-20T11:10:57;97790.56;;;2.77;72.89
16806;BME280;8520;50.102;20.010;2022-11-20T11:13:28;97795.53;;;3.20;72.64
16806;BME280;8520;50.102;20.010;2022-11-20T11:15:57;97791.25;;;2.52;71.74
16806;BME280;8520;50.102;20.010;2022-11-20T11:18:27;97783.06;;;2.81;71.98
16806;BME280;8520;50.102;20.010;2022-11-20T11:20:58;97771.97;;;2.88;72.41
16806;BME280;8520;50.102;20.010;2022-11-20T11:23:31;97772.19;;;3.19;72.01
16806;BME280;8520;50.102;20.010;2022-11-20T11:26:01;97758.69;;;3.28;71.98
16806;BME280;8520;50.102;20.010;2022-11-20T11:28:30;97777.41;;;2.88;71.68
16806;BME280;8520;50.102;20.010;2022-11-20T11:30:59;97769.13;;;2.79;71.80
16806;BME280;8520;50.102;20.010;2022-11-20T11:33:29;97772.41;;;2.99;71.86
16806;BME280;8520;50.102;20.010;2022-11-20T11:35:59;97763.59;;;3.33;71.80
16806;BME280;8520;50.102;20.010;2022-11-20T11:38:30;97772.63;;;3.43;71.24
16806;BME280;8520;50.102;20.010;2022-11-20T11:41:01;97772.75;;;3.14;71.69
16806;BME280;8520;50.102;20.010;2022-11-20T11:43:32;97765.88;;;3.48;71.05
16806;BME280;8520;50.102;20.010;2022-11-20T11:46:37;97758.66;;;3.54;71.19
16806;BME280;8520;50.102;20.010;2022-11-20T11:49:15;97751.25;;;3.54;70.24
16806;BME280;8520;50.102;20.010;2022-11-20T11:52:02;97745.06;;;3.28;70.45
16806;BME280;8520;50.102;20.010;2022-11-20T11:54:37;97744.47;;;3.71;70.20
16806;BME280;8520;50.102;20.010;2022-11-20T11:57:12;97736.75;;;3.92;69.27
16806;BME280;8520;50.102;20.010;2022-11-20T12:00:00;97733.50;;;3.97;69.26
16806;BME280;8520;50.102;20.010;2022-11-20T12:02:37;97742.13;;;3.95;69.11
16806;BME280;8520;50.102;20.010;2022-11-20T12:05:18;97734.81;;;3.45;70.81
16806;BME280;8520;50.102;20.010;2022-11-20T12:07:47;97746.47;;;3.46;70.35
16806;BME280;8520;50.102;20.010;2022-11-20T12:10:21;97741.72;;;3.24;70.93
16806;BME280;8520;50.102;20.010;2022-11-20T12:12:53;97738.88;;;3.15;70.93
16806;BME280;8520;50.102;20.010;2022-11-20T12:15:29;97735.72;;;3.17;71.20
16806;BME280;8520;50.102;20.010;2022-11-20T12:17:59;97733.31;;;3.44;71.26
16806;BME280;8520;50.102;20.010;2022-11-20T12:20:33;97736.03;;;3.31;70.98
16806;BME280;8520;50.102;20.010;2022-11-20T12:23:09;97737.34;;;3.27;70.82
16806;BME280;8520;50.102;20.010;2022-11-20T12:25:43;97724.34;;;3.56;70.38
16806;BME280;8520;50.102;20.010;2022-11-20T12:28:27;97737.09;;;3.59;69.82
16806;BME280;8520;50.102;20.010;2022-11-20T12:31:14;97743.78;;;3.20;71.07
16806;BME280;8520;50.102;20.010;2022-11-20T12:33:54;97743.88;;;3.42;70.75
16806;BME280;8520;50.102;20.010;2022-11-20T12:36:33;97743.22;;;3.38;70.13
16806;BME280;8520;50.102;20.010;2022-11-20T12:39:29;97747.19;;;3.71;69.42
16806;BME280;8520;50.102;20.010;2022-11-20T12:42:40;97740.50;;;3.85;69.49
16806;BME280;8520;50.102;20.010;2022-11-20T12:45:41;97738.47;;;3.77;69.14
16806;BME280;8520;50.102;20.010;2022-11-20T12:48:36;97742.41;;;3.76;69.07
16806;BME280;8520;50.102;20.010;2022-11-20T12:51:28;97726.69;;;4.02;68.75
16806;BME280;8520;50.102;20.010;2022-11-20T12:54:13;97732.22;;;4.11;68.77
16806;BME280;8520;50.102;20.010;2022-11-20T12:56:55;97715.78;;;4.02;68.55
16806;BME280;8520;50.102;20.010;2022-11-20T12:59:45;97725.94;;;4.01;68.86
16806;BME280;8520;50.102;20.010;2022-11-20T13:02:23;97717.75;;;4.01;69.05
16806;BME280;8520;50.102;20.010;2022-11-20T13:05:03;97722.38;;;3.91;69.32
16806;BME280;8520;50.102;20.010;2022-11-20T13:07:35;97719.03;;;4.09;69.01
16806;BME280;8520;50.102;20.010;2022-11-20T13:10:05;97715.41;;;3.90;69.99
16806;BME280;8520;50.102;20.010;2022-11-20T13:12:45;97712.06;;;4.08;69.83
16806;BME280;8520;50.102;20.010;2022-11-20T13:15:22;97706.81;;;4.14;69.67
16806;BME280;8520;50.102;20.010;2022-11-20T13:17:57;97696.91;;;3.85;70.28
16806;BME280;8520;50.102;20.010;2022-11-20T13:20:27;97700.09;;;4.06;70.32
16806;BME280;8520;50.102;20.010;2022-11-20T13:22:57;97692.44;;;4.13;70.42
16806;BME280;8520;50.102;20.010;2022-11-20T13:25:27;97696.72;;;4.23;70.09
16806;BME280;8520;50.102;20.010;2022-11-20T13:27:57;97696.66;;;4.14;70.26
16806;BME280;8520;50.102;20.010;2022-11-20T13:30:26;97696.22;;;4.16;70.33